sensor_id;sensor_type;location;lat;lon;timestamp;P1;durP1;ratioP1;P2;durP2;ratioP2
40707;SDS011;26392;42.696;23.350;2022-10-23T00:00:01;48.70;;;23.38;;
40707;SDS011;26392;42.696;23.350;2022-10-23T00:02:27;49.00;;;22.55;;
40707;SDS011;26392;42.696;23.350;2022-10-23T00:04:53;46.65;;;23.00;;
40707;SDS011;26392;42.696;23.350;2022-10-23T00:07:18;58.05;;;24.80;;
40707;SDS011;26392;42.696;23.350;2022-10-23T00:09:44;51.95;;;23.05;;
40707;SDS011;26392;42.696;23.350;2022-10-23T00:12:09;44.97;;;22.70;;
40707;SDS011;26392;42.696;23.350;2022-10-23T00:14:34;51.70;;;22.85;;
40707;SDS011;26392;42.696;23.350;2022-10-23T00:17:00;50.22;;;21.92;;
40707;SDS011;26392;42.696;23.350;2022-10-23T00:19:25;48.15;;;22.10;;
40707;SDS011;26392;42.696;23.350;2022-10-23T00:21:51;57.97;;;23.50;;
40707;SDS011;26392;42.696;23.350;2022-10-23T00:24:16;50.20;;;22.02;;
40707;SDS011;26392;42.696;23.350;2022-10-23T00:26:41;42.67;;;21.33;;
40707;SDS011;26392;42.696;23.350;2022-10-23T00:29:07;46.08;;;21.08;;
40707;SDS011;26392;42.696;23.350;2022-10-23T00:31:33;46.55;;;19.33;;
40707;SDS011;26392;42.696;23.350;2022-10-23T00:33:59;50.83;;;21.48;;
40707;SDS011;26392;42.696;23.350;2022-10-23T00:36:24;44.17;;;22.13;;
40707;SDS011;26392;42.696;23.350;2022-10-23T00:38:50;39.72;;;19.85;;
40707;SDS011;26392;42.696;23.350;2022-10-23T00:41:17;45.35;;;20.05;;
40707;SDS011;26392;42.696;23.350;2022-10-23T00:43:55;38.53;;;19.90;;
40707;SDS011;26392;42.696;23.350;2022-10-23T00:46:30;39.03;;;19.95;;
40707;SDS011;26392;42.696;23.350;2022-10-23T00:48:56;37.42;;;19.38;;
40707;SDS011;26392;42.696;23.350;2022-10-23T00:51:23;38.63;;;19.85;;
40707;SDS011;26392;42.696;23.350;2022-10-23T00:53:53;38.20;;;19.77;;
40707;SDS011;26392;42.696;23.350;2022-10-23T00:56:23;42.25;;;19.83;;
40707;SDS011;26392;42.696;23.350;2022-10-23T00:58:50;39.85;;;19.70;;
40707;SDS011;26392;42.696;23.350;2022-10-23T01:01:19;47.85;;;23.98;;
40707;SDS011;26392;42.696;23.350;2022-10-23T01:03:46;53.83;;;26.70;;
40707;SDS011;26392;42.696;23.350;2022-10-23T01:06:34;58.40;;;26.38;;
40707;SDS011;26392;42.696;23.350;2022-10-23T01:20:44;51.05;;;24.77;;
40707;SDS011;26392;42.696;23.350;2022-10-23T01:23:27;58.38;;;25.60;;
40707;SDS011;26392;42.696;23.350;2022-10-23T01:34:46;45.58;;;21.23;;
40707;SDS011;26392;42.696;23.350;2022-10-23T01:37:20;52.47;;;23.02;;
40707;SDS011;26392;42.696;23.350;2022-10-23T01:39:57;47.58;;;20.65;;
40707;SDS011;26392;42.696;23.350;2022-10-23T01:42:28;44.75;;;22.00;;
40707;SDS011;26392;42.696;23.350;2022-10-23T01:45:22;43.53;;;21.60;;
40707;SDS011;26392;42.696;23.350;2022-10-23T01:47:49;44.17;;;22.00;;
40707;SDS011;26392;42.696;23.350;2022-10-23T01:50:17;46.17;;;22.45;;
40707;SDS011;26392;42.696;23.350;2022-10-23T01:52:45;47.60;;;23.52;;
40707;SDS011;26392;42.696;23.350;2022-10-23T01:55:11;47.00;;;20.55;;
40707;SDS011;26392;42.696;23.350;2022-10-23T01:57:37;48.10;;;21.48;;
40707;SDS011;26392;42.696;23.350;2022-10-23T02:00:09;42.13;;;21.52;;
40707;SDS011;26392;42.696;23.350;2022-10-23T02:02:38;44.47;;;21.67;;
40707;SDS011;26392;42.696;23.350;2022-10-23T02:07:33;40.72;;;21.15;;
40707;SDS011;26392;42.696;23.350;2022-10-23T02:09:59;49.72;;;22.65;;
40707;SDS011;26392;42.696;23.350;2022-10-23T02:15:02;46.00;;;20.92;;
40707;SDS011;26392;42.696;23.350;2022-10-23T02:17:54;40.42;;;20.38;;
40707;SDS011;26392;42.696;23.350;2022-10-23T02:23:21;43.92;;;20.92;;
40707;SDS011;26392;42.696;23.350;2022-10-23T02:25:56;43.03;;;20.13;;
40707;SDS011;26392;42.696;23.350;2022-10-23T02:28:45;43.05;;;20.27;;
40707;SDS011;26392;42.696;23.350;2022-10-23T02:31:16;41.33;;;20.00;;
40707;SDS011;26392;42.696;23.350;2022-10-23T02:33:45;36.53;;;18.60;;
40707;SDS011;26392;42.696;23.350;2022-10-23T02:36:11;41.60;;;20.15;;
40707;SDS011;26392;42.696;23.350;2022-10-23T02:38:38;42.38;;;19.83;;
40707;SDS011;26392;42.696;23.350;2022-10-23T02:52:19;40.55;;;19.10;;
40707;SDS011;26392;42.696;23.350;2022-10-23T03:00:41;38.33;;;17.35;;
40707;SDS011;26392;42.696;23.350;2022-10-23T03:03:20;37.58;;;17.70;;
40707;SDS011;26392;42.696;23.350;2022-10-23T03:05:50;46.05;;;19.30;;
40707;SDS011;26392;42.696;23.350;2022-10-23T03:08:16;37.55;;;18.42;;
40707;SDS011;26392;42.696;23.350;2022-10-23T03:10:41;39.10;;;18.45;;
40707;SDS011;26392;42.696;23.350;2022-10-23T03:13:08;38.30;;;18.80;;
40707;SDS011;26392;42.696;23.350;2022-10-23T03:15:34;46.15;;;19.00;;
40707;SDS011;26392;42.696;23.350;2022-10-23T03:18:00;44.95;;;19.70;;
40707;SDS011;26392;42.696;23.350;2022-10-23T03:20:25;34.35;;;17.85;;
40707;SDS011;26392;42.696;23.350;2022-10-23T03:22:50;35.78;;;18.70;;
40707;SDS011;26392;42.696;23.350;2022-10-23T03:25:16;39.40;;;18.58;;
40707;SDS011;26392;42.696;23.350;2022-10-23T03:27:41;31.80;;;16.80;;
40707;SDS011;26392;42.696;23.350;2022-10-23T03:30:07;34.47;;;17.33;;
40707;SDS011;26392;42.696;23.350;2022-10-23T03:32:33;32.40;;;18.08;;
40707;SDS011;26392;42.696;23.350;2022-10-23T03:34:58;38.95;;;18.63;;
40707;SDS011;26392;42.696;23.350;2022-10-23T03:37:24;39.28;;;18.10;;
40707;SDS011;26392;42.696;23.350;2022-10-23T03:39:49;40.67;;;18.23;;
40707;SDS011;26392;42.696;23.350;2022-10-23T03:42:15;34.13;;;17.50;;
40707;SDS011;26392;42.696;23.350;2022-10-23T03:44:40;34.85;;;17.10;;
40707;SDS011;26392;42.696;23.350;2022-10-23T03:47:05;30.73;;;15.80;;
40707;SDS011;26392;42.696;23.350;2022-10-23T03:49:33;33.17;;;16.85;;
40707;SDS011;26392;42.696;23.350;2022-10-23T03:51:59;32.33;;;17.00;;
40707;SDS011;26392;42.696;23.350;2022-10-23T03:54:25;36.67;;;17.23;;
40707;SDS011;26392;42.696;23.350;2022-10-23T03:56:52;29.75;;;16.63;;
40707;SDS011;26392;42.696;23.350;2022-10-23T03:59:18;33.72;;;17.02;;
40707;SDS011;26392;42.696;23.350;2022-10-23T04:01:43;33.63;;;17.05;;
40707;SDS011;26392;42.696;23.350;2022-10-23T04:04:09;32.08;;;16.45;;
40707;SDS011;26392;42.696;23.350;2022-10-23T04:06:35;37.70;;;17.40;;
40707;SDS011;26392;42.696;23.350;2022-10-23T04:09:01;35.55;;;17.30;;
40707;SDS011;26392;42.696;23.350;2022-10-23T04:11:27;31.25;;;16.45;;
40707;SDS011;26392;42.696;23.350;2022-10-23T04:13:52;38.30;;;16.05;;
40707;SDS011;26392;42.696;23.350;2022-10-23T04:16:18;34.60;;;16.52;;
40707;SDS011;26392;42.696;23.350;2022-10-23T04:18:43;30.65;;;15.57;;
40707;SDS011;26392;42.696;23.350;2022-10-23T04:21:09;31.77;;;15.55;;
40707;SDS011;26392;42.696;23.350;2022-10-23T04:23:35;28.95;;;15.95;;
40707;SDS011;26392;42.696;23.350;2022-10-23T04:26:00;32.15;;;15.35;;
40707;SDS011;26392;42.696;23.350;2022-10-23T04:28:26;34.58;;;16.38;;
40707;SDS011;26392;42.696;23.350;2022-10-23T04:30:52;31.75;;;16.02;;
40707;SDS011;26392;42.696;23.350;2022-10-23T04:33:17;31.25;;;15.05;;
40707;SDS011;26392;42.696;23.350;2022-10-23T04:35:43;38.80;;;16.15;;
40707;SDS011;26392;42.696;23.350;2022-10-23T04:38:09;31.25;;;16.05;;
40707;SDS011;26392;42.696;23.350;2022-10-23T04:40:35;35.28;;;15.50;;
40707;SDS011;26392;42.696;23.350;2022-10-23T04:43:00;37.85;;;16.52;;
40707;SDS011;26392;42.696;23.350;2022-10-23T04:45:26;32.90;;;15.85;;
40707;SDS011;26392;42.696;23.350;2022-10-23T04:47:51;33.15;;;15.38;;
40707;SDS011;26392;42.696;23.350;2022-10-23T04:50:20;36.47;;;15.68;;
40707;SDS011;26392;42.696;23.350;2022-10-23T04:52:46;40.78;;;18.52;;
40707;SDS011;26392;42.696;23.350;2022-10-23T04:55:11;46.83;;;19.10;;
40707;SDS011;26392;42.696;23.350;2022-10-23T04:57:36;40.35;;;19.15;;
40707;SDS011;26392;42.696;23.350;2022-10-23T05:00:06;38.67;;;19.15;;
40707;SDS011;26392;42.696;23.350;2022-10-23T05:02:33;38.25;;;18.92;;
40707;SDS011;26392;42.696;23.350;2022-10-23T05:04:58;46.65;;;18.98;;
40707;SDS011;26392;42.696;23.350;2022-10-23T05:07:24;38.17;;;18.23;;
40707;SDS011;26392;42.696;23.350;2022-10-23T05:09:49;37.50;;;19.25;;
40707;SDS011;26392;42.696;23.350;2022-10-23T05:12:15;38.92;;;19.27;;
40707;SDS011;26392;42.696;23.350;2022-10-23T05:14:42;43.63;;;18.35;;
40707;SDS011;26392;42.696;23.350;2022-10-23T05:17:08;37.35;;;17.58;;
40707;SDS011;26392;42.696;23.350;2022-10-23T05:19:42;39.75;;;18.27;;
40707;SDS011;26392;42.696;23.350;2022-10-23T05:22:12;42.28;;;17.65;;
40707;SDS011;26392;42.696;23.350;2022-10-23T05:24:38;38.58;;;17.48;;
40707;SDS011;26392;42.696;23.350;2022-10-23T05:27:04;36.47;;;17.50;;
40707;SDS011;26392;42.696;23.350;2022-10-23T05:29:29;28.38;;;14.57;;
40707;SDS011;26392;42.696;23.350;2022-10-23T05:31:56;31.83;;;15.38;;
40707;SDS011;26392;42.696;23.350;2022-10-23T05:34:24;36.75;;;15.35;;
40707;SDS011;26392;42.696;23.350;2022-10-23T05:36:51;32.65;;;14.63;;
40707;SDS011;26392;42.696;23.350;2022-10-23T05:39:18;39.47;;;17.20;;
40707;SDS011;26392;42.696;23.350;2022-10-23T05:41:44;35.88;;;15.38;;
40707;SDS011;26392;42.696;23.350;2022-10-23T05:44:09;29.60;;;12.38;;
40707;SDS011;26392;42.696;23.350;2022-10-23T05:46:39;21.30;;;10.02;;
40707;SDS011;26392;42.696;23.350;2022-10-23T05:49:07;24.67;;;9.93;;
40707;SDS011;26392;42.696;23.350;2022-10-23T05:51:36;33.35;;;15.45;;
40707;SDS011;26392;42.696;23.350;2022-10-23T05:54:02;32.53;;;17.13;;
40707;SDS011;26392;42.696;23.350;2022-10-23T05:56:28;50.60;;;16.80;;
40707;SDS011;26392;42.696;23.350;2022-10-23T05:58:53;43.95;;;17.00;;
40707;SDS011;26392;42.696;23.350;2022-10-23T06:01:19;35.38;;;16.85;;
40707;SDS011;26392;42.696;23.350;2022-10-23T06:03:44;30.00;;;15.40;;
40707;SDS011;26392;42.696;23.350;2022-10-23T06:06:10;30.55;;;15.30;;
40707;SDS011;26392;42.696;23.350;2022-10-23T06:08:35;33.33;;;15.77;;
40707;SDS011;26392;42.696;23.350;2022-10-23T06:11:04;32.53;;;14.77;;
40707;SDS011;26392;42.696;23.350;2022-10-23T06:13:34;29.65;;;14.43;;
40707;SDS011;26392;42.696;23.350;2022-10-23T06:16:06;29.60;;;13.15;;
40707;SDS011;26392;42.696;23.350;2022-10-23T06:18:35;28.98;;;12.57;;
40707;SDS011;26392;42.696;23.350;2022-10-23T06:21:01;23.27;;;13.05;;
40707;SDS011;26392;42.696;23.350;2022-10-23T06:23:26;27.10;;;12.98;;
40707;SDS011;26392;42.696;23.350;2022-10-23T06:25:53;35.42;;;13.80;;
40707;SDS011;26392;42.696;23.350;2022-10-23T06:28:20;28.63;;;13.80;;
40707;SDS011;26392;42.696;23.350;2022-10-23T06:30:45;31.17;;;15.15;;
40707;SDS011;26392;42.696;23.350;2022-10-23T06:33:11;25.20;;;12.60;;
40707;SDS011;26392;42.696;23.350;2022-10-23T06:35:37;18.30;;;9.82;;
40707;SDS011;26392;42.696;23.350;2022-10-23T06:38:02;19.73;;;8.32;;
40707;SDS011;26392;42.696;23.350;2022-10-23T06:40:27;14.32;;;6.25;;
40707;SDS011;26392;42.696;23.350;2022-10-23T06:42:54;15.73;;;6.75;;
40707;SDS011;26392;42.696;23.350;2022-10-23T06:45:20;12.07;;;5.85;;
40707;SDS011;26392;42.696;23.350;2022-10-23T06:47:48;10.45;;;5.97;;
40707;SDS011;26392;42.696;23.350;2022-10-23T06:50:14;14.10;;;6.32;;
40707;SDS011;26392;42.696;23.350;2022-10-23T06:52:39;10.52;;;5.82;;
40707;SDS011;26392;42.696;23.350;2022-10-23T06:55:05;13.88;;;6.40;;
40707;SDS011;26392;42.696;23.350;2022-10-23T06:57:32;10.82;;;5.57;;
40707;SDS011;26392;42.696;23.350;2022-10-23T06:59:57;13.73;;;5.43;;
40707;SDS011;26392;42.696;23.350;2022-10-23T07:02:22;15.95;;;6.03;;
40707;SDS011;26392;42.696;23.350;2022-10-23T07:04:48;13.70;;;5.45;;
40707;SDS011;26392;42.696;23.350;2022-10-23T07:07:13;12.35;;;5.80;;
40707;SDS011;26392;42.696;23.350;2022-10-23T07:09:39;11.98;;;5.50;;
40707;SDS011;26392;42.696;23.350;2022-10-23T07:12:04;13.25;;;5.75;;
40707;SDS011;26392;42.696;23.350;2022-10-23T07:14:30;10.27;;;5.07;;
40707;SDS011;26392;42.696;23.350;2022-10-23T07:16:56;12.75;;;6.13;;
40707;SDS011;26392;42.696;23.350;2022-10-23T07:19:22;10.10;;;5.55;;
40707;SDS011;26392;42.696;23.350;2022-10-23T07:21:47;12.82;;;6.13;;
40707;SDS011;26392;42.696;23.350;2022-10-23T07:24:14;13.65;;;6.07;;
40707;SDS011;26392;42.696;23.350;2022-10-23T07:26:40;13.35;;;6.95;;
40707;SDS011;26392;42.696;23.350;2022-10-23T07:29:05;12.05;;;6.22;;
40707;SDS011;26392;42.696;23.350;2022-10-23T07:31:31;13.35;;;5.55;;
40707;SDS011;26392;42.696;23.350;2022-10-23T07:33:57;10.20;;;5.65;;
40707;SDS011;26392;42.696;23.350;2022-10-23T07:36:22;15.07;;;5.78;;
40707;SDS011;26392;42.696;23.350;2022-10-23T07:38:49;17.83;;;6.20;;
40707;SDS011;26392;42.696;23.350;2022-10-23T07:41:15;10.07;;;5.13;;
40707;SDS011;26392;42.696;23.350;2022-10-23T07:43:40;11.55;;;5.85;;
40707;SDS011;26392;42.696;23.350;2022-10-23T07:46:06;9.75;;;5.65;;
40707;SDS011;26392;42.696;23.350;2022-10-23T07:48:35;9.18;;;5.68;;
40707;SDS011;26392;42.696;23.350;2022-10-23T07:51:04;11.68;;;5.95;;
40707;SDS011;26392;42.696;23.350;2022-10-23T07:53:32;7.45;;;5.07;;
40707;SDS011;26392;42.696;23.350;2022-10-23T07:56:00;10.00;;;5.45;;
40707;SDS011;26392;42.696;23.350;2022-10-23T07:58:27;13.38;;;4.38;;
40707;SDS011;26392;42.696;23.350;2022-10-23T08:01:00;12.43;;;4.82;;
40707;SDS011;26392;42.696;23.350;2022-10-23T08:03:28;9.73;;;4.53;;
40707;SDS011;26392;42.696;23.350;2022-10-23T08:05:55;7.85;;;4.20;;
40707;SDS011;26392;42.696;23.350;2022-10-23T08:08:21;8.25;;;4.22;;
40707;SDS011;26392;42.696;23.350;2022-10-23T08:10:48;9.65;;;4.20;;
40707;SDS011;26392;42.696;23.350;2022-10-23T08:13:15;9.82;;;5.07;;
40707;SDS011;26392;42.696;23.350;2022-10-23T08:15:41;6.63;;;4.05;;
40707;SDS011;26392;42.696;23.350;2022-10-23T08:18:08;8.95;;;4.20;;
40707;SDS011;26392;42.696;23.350;2022-10-23T08:20:43;30.17;;;8.30;;
40707;SDS011;26392;42.696;23.350;2022-10-23T08:23:10;6.80;;;4.00;;
40707;SDS011;26392;42.696;23.350;2022-10-23T08:25:37;7.53;;;4.00;;
40707;SDS011;26392;42.696;23.350;2022-10-23T08:28:04;10.98;;;4.40;;
40707;SDS011;26392;42.696;23.350;2022-10-23T08:30:30;8.98;;;4.38;;
40707;SDS011;26392;42.696;23.350;2022-10-23T08:32:56;8.77;;;4.60;;
40707;SDS011;26392;42.696;23.350;2022-10-23T08:35:22;8.57;;;4.00;;
40707;SDS011;26392;42.696;23.350;2022-10-23T08:37:48;8.65;;;4.13;;
40707;SDS011;26392;42.696;23.350;2022-10-23T08:40:14;5.97;;;4.30;;
40707;SDS011;26392;42.696;23.350;2022-10-23T08:42:42;12.02;;;4.45;;
40707;SDS011;26392;42.696;23.350;2022-10-23T08:45:32;11.43;;;4.82;;
40707;SDS011;26392;42.696;23.350;2022-10-23T08:48:07;8.80;;;4.43;;
40707;SDS011;26392;42.696;23.350;2022-10-23T08:50:44;8.77;;;4.65;;
40707;SDS011;26392;42.696;23.350;2022-10-23T08:53:14;10.13;;;4.53;;
40707;SDS011;26392;42.696;23.350;2022-10-23T08:56:11;8.13;;;3.80;;
40707;SDS011;26392;42.696;23.350;2022-10-23T08:58:44;7.43;;;3.40;;
40707;SDS011;26392;42.696;23.350;2022-10-23T09:01:32;6.30;;;3.78;;
40707;SDS011;26392;42.696;23.350;2022-10-23T09:04:01;7.25;;;3.70;;
40707;SDS011;26392;42.696;23.350;2022-10-23T09:06:30;7.20;;;4.30;;
40707;SDS011;26392;42.696;23.350;2022-10-23T09:17:32;8.32;;;4.00;;
40707;SDS011;26392;42.696;23.350;2022-10-23T09:20:17;5.32;;;3.47;;
40707;SDS011;26392;42.696;23.350;2022-10-23T09:22:49;8.15;;;3.53;;
40707;SDS011;26392;42.696;23.350;2022-10-23T09:25:28;4.68;;;3.58;;
40707;SDS011;26392;42.696;23.350;2022-10-23T09:27:58;6.22;;;3.35;;
40707;SDS011;26392;42.696;23.350;2022-10-23T09:30:26;5.72;;;3.60;;
40707;SDS011;26392;42.696;23.350;2022-10-23T09:40:56;11.65;;;4.00;;
40707;SDS011;26392;42.696;23.350;2022-10-23T09:43:24;3.92;;;2.85;;
40707;SDS011;26392;42.696;23.350;2022-10-23T09:45:55;7.40;;;3.22;;
40707;SDS011;26392;42.696;23.350;2022-10-23T09:48:32;5.68;;;3.53;;
40707;SDS011;26392;42.696;23.350;2022-10-23T09:53:53;10.52;;;3.72;;
40707;SDS011;26392;42.696;23.350;2022-10-23T09:58:54;5.50;;;3.13;;
40707;SDS011;26392;42.696;23.350;2022-10-23T10:01:23;5.40;;;2.75;;
40707;SDS011;26392;42.696;23.350;2022-10-23T10:03:51;3.50;;;2.35;;
40707;SDS011;26392;42.696;23.350;2022-10-23T10:06:22;4.68;;;2.15;;
40707;SDS011;26392;42.696;23.350;2022-10-23T10:08:56;4.72;;;2.45;;
40707;SDS011;26392;42.696;23.350;2022-10-23T10:11:33;4.38;;;2.72;;
40707;SDS011;26392;42.696;23.350;2022-10-23T10:14:12;3.50;;;2.40;;
40707;SDS011;26392;42.696;23.350;2022-10-23T10:30:27;4.10;;;2.35;;
40707;SDS011;26392;42.696;23.350;2022-10-23T10:33:03;4.22;;;2.47;;
40707;SDS011;26392;42.696;23.350;2022-10-23T10:56:50;4.05;;;2.60;;
40707;SDS011;26392;42.696;23.350;2022-10-23T11:04:41;7.22;;;2.40;;
40707;SDS011;26392;42.696;23.350;2022-10-23T11:07:16;5.38;;;2.25;;
40707;SDS011;26392;42.696;23.350;2022-10-23T11:09:46;3.65;;;2.08;;
40707;SDS011;26392;42.696;23.350;2022-10-23T11:12:29;3.20;;;2.15;;
40707;SDS011;26392;42.696;23.350;2022-10-23T11:14:56;4.28;;;2.20;;
40707;SDS011;26392;42.696;23.350;2022-10-23T11:37:21;5.28;;;2.42;;
40707;SDS011;26392;42.696;23.350;2022-10-23T11:40:48;3.42;;;2.17;;
40707;SDS011;26392;42.696;23.350;2022-10-23T11:42:48;3.97;;;2.15;;
40707;SDS011;26392;42.696;23.350;2022-10-23T11:45:28;3.38;;;2.30;;
40707;SDS011;26392;42.696;23.350;2022-10-23T11:50:23;3.72;;;2.10;;
40707;SDS011;26392;42.696;23.350;2022-10-23T11:52:58;4.22;;;2.53;;
40707;SDS011;26392;42.696;23.350;2022-10-23T11:55:28;1.95;;;1.75;;
40707;SDS011;26392;42.696;23.350;2022-10-23T12:00:52;3.70;;;2.10;;
40707;SDS011;26392;42.696;23.350;2022-10-23T12:06:26;2.25;;;1.77;;
40707;SDS011;26392;42.696;23.350;2022-10-23T12:09:00;3.03;;;2.03;;
40707;SDS011;26392;42.696;23.350;2022-10-23T12:11:39;6.57;;;2.13;;
40707;SDS011;26392;42.696;23.350;2022-10-23T12:14:23;4.55;;;2.30;;
40707;SDS011;26392;42.696;23.350;2022-10-23T12:16:50;3.72;;;1.95;;
40707;SDS011;26392;42.696;23.350;2022-10-23T12:19:17;2.30;;;1.80;;
40707;SDS011;26392;42.696;23.350;2022-10-23T12:21:45;2.65;;;1.83;;
40707;SDS011;26392;42.696;23.350;2022-10-23T12:24:16;4.35;;;1.90;;
40707;SDS011;26392;42.696;23.350;2022-10-23T12:34:35;3.13;;;1.70;;
40707;SDS011;26392;42.696;23.350;2022-10-23T12:37:31;5.07;;;1.70;;
40707;SDS011;26392;42.696;23.350;2022-10-23T12:40:19;2.78;;;1.85;;
40707;SDS011;26392;42.696;23.350;2022-10-23T12:42:52;1.90;;;1.52;;
40707;SDS011;26392;42.696;23.350;2022-10-23T12:45:22;2.45;;;1.45;;
40707;SDS011;26392;42.696;23.350;2022-10-23T12:50:42;3.33;;;1.50;;
40707;SDS011;26392;42.696;23.350;2022-10-23T12:53:15;5.45;;;1.50;;
40707;SDS011;26392;42.696;23.350;2022-10-23T12:58:23;4.20;;;1.40;;
40707;SDS011;26392;42.696;23.350;2022-10-23T13:00:58;1.83;;;1.25;;
40707;SDS011;26392;42.696;23.350;2022-10-23T13:03:26;6.07;;;1.25;;
40707;SDS011;26392;42.696;23.350;2022-10-23T13:05:54;4.28;;;1.63;;
40707;SDS011;26392;42.696;23.350;2022-10-23T13:08:35;2.53;;;1.30;;
40707;SDS011;26392;42.696;23.350;2022-10-23T13:11:04;2.10;;;1.33;;
40707;SDS011;26392;42.696;23.350;2022-10-23T13:13:33;1.27;;;0.93;;
40707;SDS011;26392;42.696;23.350;2022-10-23T13:15:59;1.58;;;1.20;;
40707;SDS011;26392;42.696;23.350;2022-10-23T13:18:24;1.77;;;1.38;;
40707;SDS011;26392;42.696;23.350;2022-10-23T13:26:03;4.40;;;1.45;;
40707;SDS011;26392;42.696;23.350;2022-10-23T13:28:31;3.30;;;1.63;;
40707;SDS011;26392;42.696;23.350;2022-10-23T13:31:04;6.82;;;1.65;;
40707;SDS011;26392;42.696;23.350;2022-10-23T13:33:33;3.72;;;1.83;;
40707;SDS011;26392;42.696;23.350;2022-10-23T13:36:22;2.42;;;1.92;;
40707;SDS011;26392;42.696;23.350;2022-10-23T13:41:38;4.82;;;3.03;;
40707;SDS011;26392;42.696;23.350;2022-10-23T13:44:12;9.05;;;3.13;;
40707;SDS011;26392;42.696;23.350;2022-10-23T13:46:39;8.60;;;4.63;;
40707;SDS011;26392;42.696;23.350;2022-10-23T13:49:05;5.07;;;2.92;;
40707;SDS011;26392;42.696;23.350;2022-10-23T13:51:50;9.60;;;3.15;;
40707;SDS011;26392;42.696;23.350;2022-10-23T13:54:19;10.05;;;4.72;;
40707;SDS011;26392;42.696;23.350;2022-10-23T13:56:49;9.68;;;4.93;;
40707;SDS011;26392;42.696;23.350;2022-10-23T13:59:15;9.07;;;5.18;;
40707;SDS011;26392;42.696;23.350;2022-10-23T14:01:41;4.30;;;3.10;;
40707;SDS011;26392;42.696;23.350;2022-10-23T14:04:07;4.45;;;2.50;;
40707;SDS011;26392;42.696;23.350;2022-10-23T14:06:34;4.10;;;2.30;;
40707;SDS011;26392;42.696;23.350;2022-10-23T14:09:01;3.67;;;1.90;;
40707;SDS011;26392;42.696;23.350;2022-10-23T14:11:28;3.47;;;1.77;;
40707;SDS011;26392;42.696;23.350;2022-10-23T14:13:53;3.20;;;1.70;;
40707;SDS011;26392;42.696;23.350;2022-10-23T14:16:19;2.80;;;1.70;;
40707;SDS011;26392;42.696;23.350;2022-10-23T14:18:45;1.98;;;1.60;;
40707;SDS011;26392;42.696;23.350;2022-10-23T14:21:12;2.42;;;1.48;;
40707;SDS011;26392;42.696;23.350;2022-10-23T14:23:39;2.17;;;1.27;;
40707;SDS011;26392;42.696;23.350;2022-10-23T14:26:05;4.22;;;1.60;;
40707;SDS011;26392;42.696;23.350;2022-10-23T14:28:32;3.72;;;2.10;;
40707;SDS011;26392;42.696;23.350;2022-10-23T14:31:02;2.53;;;1.65;;
40707;SDS011;26392;42.696;23.350;2022-10-23T14:33:37;2.53;;;1.70;;
40707;SDS011;26392;42.696;23.350;2022-10-23T14:36:04;4.80;;;1.80;;
40707;SDS011;26392;42.696;23.350;2022-10-23T14:38:29;3.50;;;1.98;;
40707;SDS011;26392;42.696;23.350;2022-10-23T14:40:55;2.00;;;1.75;;
40707;SDS011;26392;42.696;23.350;2022-10-23T14:43:21;3.65;;;1.85;;
40707;SDS011;26392;42.696;23.350;2022-10-23T14:45:47;2.08;;;1.88;;
40707;SDS011;26392;42.696;23.350;2022-10-23T14:48:13;2.25;;;1.65;;
40707;SDS011;26392;42.696;23.350;2022-10-23T14:50:41;4.10;;;1.83;;
40707;SDS011;26392;42.696;23.350;2022-10-23T14:53:08;7.88;;;2.45;;
40707;SDS011;26392;42.696;23.350;2022-10-23T14:55:33;4.07;;;2.20;;
40707;SDS011;26392;42.696;23.350;2022-10-23T14:57:59;2.65;;;1.88;;
40707;SDS011;26392;42.696;23.350;2022-10-23T15:00:27;4.13;;;2.08;;
40707;SDS011;26392;42.696;23.350;2022-10-23T15:02:53;12.75;;;2.50;;
40707;SDS011;26392;42.696;23.350;2022-10-23T15:05:18;9.75;;;2.92;;
40707;SDS011;26392;42.696;23.350;2022-10-23T15:07:43;6.07;;;3.10;;
40707;SDS011;26392;42.696;23.350;2022-10-23T15:10:09;6.95;;;3.80;;
40707;SDS011;26392;42.696;23.350;2022-10-23T15:12:35;8.57;;;3.42;;
40707;SDS011;26392;42.696;23.350;2022-10-23T15:15:01;7.53;;;3.95;;
40707;SDS011;26392;42.696;23.350;2022-10-23T15:17:29;6.00;;;3.58;;
40707;SDS011;26392;42.696;23.350;2022-10-23T15:19:56;9.70;;;3.40;;
40707;SDS011;26392;42.696;23.350;2022-10-23T15:22:21;10.23;;;3.40;;
40707;SDS011;26392;42.696;23.350;2022-10-23T15:24:47;8.48;;;2.90;;
40707;SDS011;26392;42.696;23.350;2022-10-23T15:27:12;6.72;;;2.80;;
40707;SDS011;26392;42.696;23.350;2022-10-23T15:29:37;6.30;;;2.92;;
40707;SDS011;26392;42.696;23.350;2022-10-23T15:32:03;7.68;;;2.90;;
40707;SDS011;26392;42.696;23.350;2022-10-23T15:34:29;9.32;;;2.60;;
40707;SDS011;26392;42.696;23.350;2022-10-23T15:36:56;7.25;;;2.63;;
40707;SDS011;26392;42.696;23.350;2022-10-23T15:39:24;9.57;;;3.20;;
40707;SDS011;26392;42.696;23.350;2022-10-23T15:41:51;6.68;;;3.38;;
40707;SDS011;26392;42.696;23.350;2022-10-23T15:44:19;5.88;;;2.97;;
40707;SDS011;26392;42.696;23.350;2022-10-23T15:46:46;4.78;;;2.50;;
40707;SDS011;26392;42.696;23.350;2022-10-23T15:49:12;5.03;;;2.47;;
40707;SDS011;26392;42.696;23.350;2022-10-23T15:51:38;3.85;;;2.38;;
40707;SDS011;26392;42.696;23.350;2022-10-23T15:54:05;7.15;;;2.90;;
40707;SDS011;26392;42.696;23.350;2022-10-23T15:56:31;5.82;;;2.83;;
40707;SDS011;26392;42.696;23.350;2022-10-23T15:58:57;5.00;;;2.60;;
40707;SDS011;26392;42.696;23.350;2022-10-23T16:01:23;8.02;;;3.08;;
40707;SDS011;26392;42.696;23.350;2022-10-23T16:03:48;9.77;;;3.05;;
40707;SDS011;26392;42.696;23.350;2022-10-23T16:06:14;8.15;;;3.25;;
40707;SDS011;26392;42.696;23.350;2022-10-23T16:08:41;6.00;;;3.10;;
40707;SDS011;26392;42.696;23.350;2022-10-23T16:11:20;6.10;;;3.00;;
40707;SDS011;26392;42.696;23.350;2022-10-23T16:13:48;4.88;;;3.05;;
40707;SDS011;26392;42.696;23.350;2022-10-23T16:16:15;6.47;;;2.90;;
40707;SDS011;26392;42.696;23.350;2022-10-23T16:18:42;4.97;;;2.97;;
40707;SDS011;26392;42.696;23.350;2022-10-23T16:21:13;8.02;;;3.40;;
40707;SDS011;26392;42.696;23.350;2022-10-23T16:23:42;5.57;;;3.17;;
40707;SDS011;26392;42.696;23.350;2022-10-23T16:26:08;7.28;;;3.40;;
40707;SDS011;26392;42.696;23.350;2022-10-23T16:28:33;6.38;;;3.25;;
40707;SDS011;26392;42.696;23.350;2022-10-23T16:30:59;9.35;;;3.22;;
40707;SDS011;26392;42.696;23.350;2022-10-23T16:33:24;7.68;;;3.50;;
40707;SDS011;26392;42.696;23.350;2022-10-23T16:35:50;9.38;;;3.40;;
40707;SDS011;26392;42.696;23.350;2022-10-23T16:38:15;9.65;;;3.33;;
40707;SDS011;26392;42.696;23.350;2022-10-23T16:40:40;6.47;;;3.30;;
40707;SDS011;26392;42.696;23.350;2022-10-23T16:43:06;5.50;;;3.58;;
40707;SDS011;26392;42.696;23.350;2022-10-23T16:45:31;8.45;;;3.92;;
40707;SDS011;26392;42.696;23.350;2022-10-23T16:47:57;6.75;;;3.28;;
40707;SDS011;26392;42.696;23.350;2022-10-23T16:50:22;6.07;;;3.45;;
40707;SDS011;26392;42.696;23.350;2022-10-23T16:52:48;4.93;;;3.35;;
40707;SDS011;26392;42.696;23.350;2022-10-23T16:55:13;6.68;;;3.70;;
40707;SDS011;26392;42.696;23.350;2022-10-23T16:57:39;5.80;;;3.13;;
40707;SDS011;26392;42.696;23.350;2022-10-23T17:00:05;9.52;;;3.97;;
40707;SDS011;26392;42.696;23.350;2022-10-23T17:02:30;8.18;;;3.50;;
40707;SDS011;26392;42.696;23.350;2022-10-23T17:04:56;11.07;;;3.58;;
40707;SDS011;26392;42.696;23.350;2022-10-23T17:07:22;8.25;;;3.80;;